sensor_id;sensor_type;location;lat;lon;timestamp;P1;durP1;ratioP1;P2;durP2;ratioP2
67902;SDS011;54708;43.612;1.568;2023-04-24T00:00:54;8.60;;;5.00;;
67902;SDS011;54708;43.612;1.568;2023-04-24T00:03:21;5.05;;;3.15;;
67902;SDS011;54708;43.612;1.568;2023-04-24T00:05:51;5.53;;;3.60;;
67902;SDS011;54708;43.612;1.568;2023-04-24T00:08:17;9.57;;;3.25;;
67902;SDS011;54708;43.612;1.568;2023-04-24T00:10:43;8.70;;;3.50;;
67902;SDS011;54708;43.612;1.568;2023-04-24T00:13:08;6.47;;;2.83;;
67902;SDS011;54708;43.612;1.568;2023-04-24T00:15:34;5.25;;;3.33;;
67902;SDS011;54708;43.612;1.568;2023-04-24T00:17:59;7.03;;;2.70;;
67902;SDS011;54708;43.612;1.568;2023-04-24T00:20:26;5.70;;;2.85;;
67902;SDS011;54708;43.612;1.568;2023-04-24T00:22:53;9.30;;;3.63;;
67902;SDS011;54708;43.612;1.568;2023-04-24T00:25:18;4.47;;;2.70;;
67902;SDS011;54708;43.612;1.568;2023-04-24T00:27:44;6.00;;;2.88;;
67902;SDS011;54708;43.612;1.568;2023-04-24T00:30:09;9.50;;;2.63;;
67902;SDS011;54708;43.612;1.568;2023-04-24T00:32:35;5.85;;;2.85;;
67902;SDS011;54708;43.612;1.568;2023-04-24T00:35:00;7.22;;;2.88;;
67902;SDS011;54708;43.612;1.568;2023-04-24T00:37:26;4.28;;;3.05;;
67902;SDS011;54708;43.612;1.568;2023-04-24T00:39:52;6.97;;;4.43;;
67902;SDS011;54708;43.612;1.568;2023-04-24T00:42:17;11.70;;;3.50;;
67902;SDS011;54708;43.612;1.568;2023-04-24T00:44:42;4.68;;;2.53;;
67902;SDS011;54708;43.612;1.568;2023-04-24T00:47:08;4.68;;;2.63;;
67902;SDS011;54708;43.612;1.568;2023-04-24T00:49:33;14.27;;;4.07;;
67902;SDS011;54708;43.612;1.568;2023-04-24T00:51:59;7.30;;;3.33;;
67902;SDS011;54708;43.612;1.568;2023-04-24T00:54:24;4.38;;;3.67;;
67902;SDS011;54708;43.612;1.568;2023-04-24T00:56:50;7.68;;;3.50;;
67902;SDS011;54708;43.612;1.568;2023-04-24T00:59:16;7.45;;;3.45;;
67902;SDS011;54708;43.612;1.568;2023-04-24T01:01:42;14.10;;;3.75;;
67902;SDS011;54708;43.612;1.568;2023-04-24T01:04:09;8.63;;;3.80;;
67902;SDS011;54708;43.612;1.568;2023-04-24T01:06:35;5.32;;;3.30;;
67902;SDS011;54708;43.612;1.568;2023-04-24T01:09:03;7.18;;;3.17;;
67902;SDS011;54708;43.612;1.568;2023-04-24T01:11:29;7.10;;;4.00;;
67902;SDS011;54708;43.612;1.568;2023-04-24T01:13:55;24.33;;;4.05;;
67902;SDS011;54708;43.612;1.568;2023-04-24T01:16:20;5.55;;;3.53;;
67902;SDS011;54708;43.612;1.568;2023-04-24T01:18:46;6.97;;;3.67;;
67902;SDS011;54708;43.612;1.568;2023-04-24T01:21:12;8.63;;;3.83;;
67902;SDS011;54708;43.612;1.568;2023-04-24T01:23:39;9.23;;;3.35;;
67902;SDS011;54708;43.612;1.568;2023-04-24T01:26:05;9.07;;;3.47;;
67902;SDS011;54708;43.612;1.568;2023-04-24T01:28:30;10.05;;;4.07;;
67902;SDS011;54708;43.612;1.568;2023-04-24T01:30:56;14.23;;;5.35;;
67902;SDS011;54708;43.612;1.568;2023-04-24T01:33:21;9.80;;;4.93;;
67902;SDS011;54708;43.612;1.568;2023-04-24T01:35:47;7.10;;;3.75;;
67902;SDS011;54708;43.612;1.568;2023-04-24T01:38:13;8.00;;;4.25;;
67902;SDS011;54708;43.612;1.568;2023-04-24T01:40:39;8.27;;;4.78;;
67902;SDS011;54708;43.612;1.568;2023-04-24T01:43:05;5.18;;;3.80;;
67902;SDS011;54708;43.612;1.568;2023-04-24T01:45:30;12.32;;;4.55;;
67902;SDS011;54708;43.612;1.568;2023-04-24T01:47:56;9.40;;;3.88;;
67902;SDS011;54708;43.612;1.568;2023-04-24T01:50:21;9.00;;;4.25;;
67902;SDS011;54708;43.612;1.568;2023-04-24T01:52:47;8.57;;;3.70;;
67902;SDS011;54708;43.612;1.568;2023-04-24T01:55:12;7.32;;;3.70;;
67902;SDS011;54708;43.612;1.568;2023-04-24T01:57:37;6.05;;;3.40;;
67902;SDS011;54708;43.612;1.568;2023-04-24T02:00:03;13.25;;;3.72;;
67902;SDS011;54708;43.612;1.568;2023-04-24T02:02:29;14.85;;;5.50;;
67902;SDS011;54708;43.612;1.568;2023-04-24T02:04:55;7.45;;;3.17;;
67902;SDS011;54708;43.612;1.568;2023-04-24T02:07:21;6.63;;;3.85;;
67902;SDS011;54708;43.612;1.568;2023-04-24T02:09:47;13.68;;;3.22;;
67902;SDS011;54708;43.612;1.568;2023-04-24T02:12:12;6.15;;;2.92;;
67902;SDS011;54708;43.612;1.568;2023-04-24T02:14:39;9.98;;;3.63;;
67902;SDS011;54708;43.612;1.568;2023-04-24T02:17:05;7.05;;;3.35;;
67902;SDS011;54708;43.612;1.568;2023-04-24T02:19:31;8.10;;;4.50;;
67902;SDS011;54708;43.612;1.568;2023-04-24T02:21:57;7.88;;;3.40;;
67902;SDS011;54708;43.612;1.568;2023-04-24T02:24:22;7.20;;;3.15;;
67902;SDS011;54708;43.612;1.568;2023-04-24T02:26:47;8.95;;;3.88;;
67902;SDS011;54708;43.612;1.568;2023-04-24T02:29:13;7.28;;;3.00;;
67902;SDS011;54708;43.612;1.568;2023-04-24T02:31:38;14.88;;;4.40;;
67902;SDS011;54708;43.612;1.568;2023-04-24T02:34:04;11.15;;;2.85;;
67902;SDS011;54708;43.612;1.568;2023-04-24T02:36:29;10.18;;;4.10;;
67902;SDS011;54708;43.612;1.568;2023-04-24T02:38:55;7.60;;;3.33;;
67902;SDS011;54708;43.612;1.568;2023-04-24T02:41:20;10.40;;;2.95;;
67902;SDS011;54708;43.612;1.568;2023-04-24T02:43:46;13.48;;;3.83;;
67902;SDS011;54708;43.612;1.568;2023-04-24T02:46:11;8.52;;;3.20;;
67902;SDS011;54708;43.612;1.568;2023-04-24T02:48:37;9.00;;;3.17;;
67902;SDS011;54708;43.612;1.568;2023-04-24T02:51:02;9.55;;;2.90;;
67902;SDS011;54708;43.612;1.568;2023-04-24T02:53:28;11.00;;;3.13;;
67902;SDS011;54708;43.612;1.568;2023-04-24T02:55:55;8.15;;;4.22;;
67902;SDS011;54708;43.612;1.568;2023-04-24T02:58:21;9.00;;;3.03;;
67902;SDS011;54708;43.612;1.568;2023-04-24T03:00:46;7.15;;;3.33;;
67902;SDS011;54708;43.612;1.568;2023-04-24T03:03:12;7.43;;;3.30;;
67902;SDS011;54708;43.612;1.568;2023-04-24T03:05:37;8.63;;;3.10;;
67902;SDS011;54708;43.612;1.568;2023-04-24T03:08:03;7.88;;;2.70;;
67902;SDS011;54708;43.612;1.568;2023-04-24T03:10:29;6.78;;;3.03;;
67902;SDS011;54708;43.612;1.568;2023-04-24T03:12:54;6.32;;;3.15;;
67902;SDS011;54708;43.612;1.568;2023-04-24T03:15:20;6.43;;;3.28;;
67902;SDS011;54708;43.612;1.568;2023-04-24T03:17:45;6.13;;;2.83;;
67902;SDS011;54708;43.612;1.568;2023-04-24T03:20:10;11.10;;;3.63;;
67902;SDS011;54708;43.612;1.568;2023-04-24T03:22:36;8.10;;;2.80;;
67902;SDS011;54708;43.612;1.568;2023-04-24T03:25:02;7.70;;;3.35;;
67902;SDS011;54708;43.612;1.568;2023-04-24T03:27:27;8.13;;;3.20;;
67902;SDS011;54708;43.612;1.568;2023-04-24T03:29:53;10.13;;;3.33;;
67902;SDS011;54708;43.612;1.568;2023-04-24T03:32:21;11.45;;;3.40;;
67902;SDS011;54708;43.612;1.568;2023-04-24T03:34:47;8.38;;;3.20;;
67902;SDS011;54708;43.612;1.568;2023-04-24T03:37:13;9.30;;;2.90;;
67902;SDS011;54708;43.612;1.568;2023-04-24T03:39:38;7.55;;;3.20;;
67902;SDS011;54708;43.612;1.568;2023-04-24T03:42:04;7.28;;;3.03;;
67902;SDS011;54708;43.612;1.568;2023-04-24T03:44:29;6.40;;;2.95;;
67902;SDS011;54708;43.612;1.568;2023-04-24T03:46:55;7.70;;;4.35;;
67902;SDS011;54708;43.612;1.568;2023-04-24T03:49:20;11.50;;;3.03;;
67902;SDS011;54708;43.612;1.568;2023-04-24T03:51:46;9.73;;;3.65;;
67902;SDS011;54708;43.612;1.568;2023-04-24T03:54:12;6.20;;;2.60;;
67902;SDS011;54708;43.612;1.568;2023-04-24T03:56:38;3.88;;;2.72;;
67902;SDS011;54708;43.612;1.568;2023-04-24T03:59:04;6.68;;;3.40;;
67902;SDS011;54708;43.612;1.568;2023-04-24T04:01:29;9.65;;;3.55;;
67902;SDS011;54708;43.612;1.568;2023-04-24T04:03:55;4.80;;;2.78;;
67902;SDS011;54708;43.612;1.568;2023-04-24T04:06:21;5.90;;;2.70;;
67902;SDS011;54708;43.612;1.568;2023-04-24T04:08:46;5.57;;;2.90;;
67902;SDS011;54708;43.612;1.568;2023-04-24T04:11:12;9.63;;;3.75;;
67902;SDS011;54708;43.612;1.568;2023-04-24T04:13:37;9.18;;;3.33;;
67902;SDS011;54708;43.612;1.568;2023-04-24T04:16:04;9.02;;;2.58;;
67902;SDS011;54708;43.612;1.568;2023-04-24T04:18:30;8.77;;;3.67;;
67902;SDS011;54708;43.612;1.568;2023-04-24T04:20:55;7.60;;;2.83;;
67902;SDS011;54708;43.612;1.568;2023-04-24T04:23:22;7.95;;;3.10;;
67902;SDS011;54708;43.612;1.568;2023-04-24T04:25:47;7.95;;;3.85;;
67902;SDS011;54708;43.612;1.568;2023-04-24T04:28:13;7.28;;;3.45;;
67902;SDS011;54708;43.612;1.568;2023-04-24T04:30:38;12.85;;;3.10;;
67902;SDS011;54708;43.612;1.568;2023-04-24T04:33:05;12.02;;;2.90;;
67902;SDS011;54708;43.612;1.568;2023-04-24T04:35:30;10.35;;;3.05;;
67902;SDS011;54708;43.612;1.568;2023-04-24T04:37:55;11.75;;;3.20;;
67902;SDS011;54708;43.612;1.568;2023-04-24T04:40:23;7.80;;;3.35;;
67902;SDS011;54708;43.612;1.568;2023-04-24T04:42:49;4.35;;;2.70;;
67902;SDS011;54708;43.612;1.568;2023-04-24T04:45:18;7.47;;;4.03;;
67902;SDS011;54708;43.612;1.568;2023-04-24T04:47:43;6.00;;;3.33;;
67902;SDS011;54708;43.612;1.568;2023-04-24T04:50:09;10.05;;;3.75;;
67902;SDS011;54708;43.612;1.568;2023-04-24T04:52:35;11.73;;;4.28;;
67902;SDS011;54708;43.612;1.568;2023-04-24T04:55:01;5.72;;;2.88;;
67902;SDS011;54708;43.612;1.568;2023-04-24T04:57:26;6.57;;;3.05;;
67902;SDS011;54708;43.612;1.568;2023-04-24T04:59:52;9.13;;;2.90;;
67902;SDS011;54708;43.612;1.568;2023-04-24T05:02:17;6.13;;;2.58;;
67902;SDS011;54708;43.612;1.568;2023-04-24T05:04:42;5.32;;;2.83;;
67902;SDS011;54708;43.612;1.568;2023-04-24T05:07:08;10.30;;;2.70;;
67902;SDS011;54708;43.612;1.568;2023-04-24T05:09:33;7.30;;;3.50;;
67902;SDS011;54708;43.612;1.568;2023-04-24T05:11:58;7.88;;;3.20;;
67902;SDS011;54708;43.612;1.568;2023-04-24T05:14:24;8.18;;;3.38;;
67902;SDS011;54708;43.612;1.568;2023-04-24T05:16:49;7.57;;;2.70;;
67902;SDS011;54708;43.612;1.568;2023-04-24T05:19:15;13.40;;;4.00;;
67902;SDS011;54708;43.612;1.568;2023-04-24T05:21:40;5.22;;;2.90;;
67902;SDS011;54708;43.612;1.568;2023-04-24T05:24:06;11.45;;;3.47;;
67902;SDS011;54708;43.612;1.568;2023-04-24T05:26:32;9.30;;;3.00;;
67902;SDS011;54708;43.612;1.568;2023-04-24T05:28:57;4.75;;;3.00;;
67902;SDS011;54708;43.612;1.568;2023-04-24T05:31:22;10.55;;;2.67;;
67902;SDS011;54708;43.612;1.568;2023-04-24T05:33:48;4.38;;;2.97;;
67902;SDS011;54708;43.612;1.568;2023-04-24T05:36:13;10.35;;;3.25;;
67902;SDS011;54708;43.612;1.568;2023-04-24T05:38:39;9.07;;;3.13;;
67902;SDS011;54708;43.612;1.568;2023-04-24T05:41:04;10.77;;;3.15;;
67902;SDS011;54708;43.612;1.568;2023-04-24T05:43:30;9.63;;;3.50;;
67902;SDS011;54708;43.612;1.568;2023-04-24T05:45:55;13.43;;;3.92;;
67902;SDS011;54708;43.612;1.568;2023-04-24T05:48:21;11.60;;;3.15;;
67902;SDS011;54708;43.612;1.568;2023-04-24T05:50:47;16.52;;;4.03;;
67902;SDS011;54708;43.612;1.568;2023-04-24T05:53:13;13.93;;;3.25;;
67902;SDS011;54708;43.612;1.568;2023-04-24T05:55:38;10.93;;;4.00;;
67902;SDS011;54708;43.612;1.568;2023-04-24T05:58:04;7.10;;;2.30;;
67902;SDS011;54708;43.612;1.568;2023-04-24T06:00:29;9.30;;;2.78;;
67902;SDS011;54708;43.612;1.568;2023-04-24T06:02:55;8.68;;;4.80;;
67902;SDS011;54708;43.612;1.568;2023-04-24T06:05:21;9.82;;;3.35;;
67902;SDS011;54708;43.612;1.568;2023-04-24T06:07:46;13.50;;;5.07;;
67902;SDS011;54708;43.612;1.568;2023-04-24T06:10:13;10.18;;;4.93;;
67902;SDS011;54708;43.612;1.568;2023-04-24T06:12:38;14.63;;;5.00;;
67902;SDS011;54708;43.612;1.568;2023-04-24T06:15:03;8.93;;;4.00;;
67902;SDS011;54708;43.612;1.568;2023-04-24T06:17:30;7.93;;;3.60;;
67902;SDS011;54708;43.612;1.568;2023-04-24T06:19:56;9.88;;;3.20;;
67902;SDS011;54708;43.612;1.568;2023-04-24T06:22:21;8.05;;;3.28;;
67902;SDS011;54708;43.612;1.568;2023-04-24T06:24:47;9.50;;;3.15;;
67902;SDS011;54708;43.612;1.568;2023-04-24T06:27:13;11.68;;;5.10;;
67902;SDS011;54708;43.612;1.568;2023-04-24T06:29:38;10.45;;;3.03;;
67902;SDS011;54708;43.612;1.568;2023-04-24T06:32:04;14.25;;;3.72;;
67902;SDS011;54708;43.612;1.568;2023-04-24T06:34:30;11.27;;;4.25;;
67902;SDS011;54708;43.612;1.568;2023-04-24T06:36:55;15.07;;;3.55;;
67902;SDS011;54708;43.612;1.568;2023-04-24T06:39:21;8.20;;;3.58;;
67902;SDS011;54708;43.612;1.568;2023-04-24T06:41:47;9.85;;;3.53;;
67902;SDS011;54708;43.612;1.568;2023-04-24T06:44:12;10.98;;;4.40;;
67902;SDS011;54708;43.612;1.568;2023-04-24T06:46:39;7.65;;;3.38;;
67902;SDS011;54708;43.612;1.568;2023-04-24T06:49:05;9.18;;;4.32;;
67902;SDS011;54708;43.612;1.568;2023-04-24T06:51:31;14.40;;;4.35;;
67902;SDS011;54708;43.612;1.568;2023-04-24T06:53:57;8.55;;;3.75;;
67902;SDS011;54708;43.612;1.568;2023-04-24T06:56:23;9.15;;;4.18;;
67902;SDS011;54708;43.612;1.568;2023-04-24T06:58:49;6.90;;;3.33;;
67902;SDS011;54708;43.612;1.568;2023-04-24T07:01:14;8.95;;;3.45;;
67902;SDS011;54708;43.612;1.568;2023-04-24T07:03:40;12.98;;;5.10;;
67902;SDS011;54708;43.612;1.568;2023-04-24T07:06:05;9.43;;;3.10;;
67902;SDS011;54708;43.612;1.568;2023-04-24T07:08:31;17.52;;;3.75;;
67902;SDS011;54708;43.612;1.568;2023-04-24T07:10:58;13.48;;;4.15;;
67902;SDS011;54708;43.612;1.568;2023-04-24T07:13:23;12.77;;;4.45;;
67902;SDS011;54708;43.612;1.568;2023-04-24T07:15:49;8.07;;;3.15;;
67902;SDS011;54708;43.612;1.568;2023-04-24T07:18:17;9.80;;;3.30;;
67902;SDS011;54708;43.612;1.568;2023-04-24T07:20:43;10.32;;;3.72;;
67902;SDS011;54708;43.612;1.568;2023-04-24T07:23:08;12.90;;;3.92;;
67902;SDS011;54708;43.612;1.568;2023-04-24T07:25:33;15.40;;;4.18;;
67902;SDS011;54708;43.612;1.568;2023-04-24T07:27:59;9.68;;;3.15;;
67902;SDS011;54708;43.612;1.568;2023-04-24T07:30:24;10.52;;;3.38;;
67902;SDS011;54708;43.612;1.568;2023-04-24T07:32:50;5.00;;;2.75;;
67902;SDS011;54708;43.612;1.568;2023-04-24T07:35:15;12.15;;;4.60;;
67902;SDS011;54708;43.612;1.568;2023-04-24T07:37:41;7.68;;;3.30;;
67902;SDS011;54708;43.612;1.568;2023-04-24T07:40:10;7.85;;;3.78;;
67902;SDS011;54708;43.612;1.568;2023-04-24T07:42:37;8.02;;;3.22;;
67902;SDS011;54708;43.612;1.568;2023-04-24T07:45:03;9.18;;;3.00;;
67902;SDS011;54708;43.612;1.568;2023-04-24T07:47:29;9.38;;;3.28;;
67902;SDS011;54708;43.612;1.568;2023-04-24T07:49:55;6.93;;;2.25;;
67902;SDS011;54708;43.612;1.568;2023-04-24T07:52:20;7.80;;;2.40;;
67902;SDS011;54708;43.612;1.568;2023-04-24T07:54:45;6.78;;;2.65;;
67902;SDS011;54708;43.612;1.568;2023-04-24T07:57:11;6.80;;;2.70;;
67902;SDS011;54708;43.612;1.568;2023-04-24T07:59:36;7.47;;;3.05;;
67902;SDS011;54708;43.612;1.568;2023-04-24T08:02:02;4.40;;;2.53;;
67902;SDS011;54708;43.612;1.568;2023-04-24T08:04:27;5.72;;;2.42;;
67902;SDS011;54708;43.612;1.568;2023-04-24T08:06:52;4.88;;;2.22;;
67902;SDS011;54708;43.612;1.568;2023-04-24T08:09:18;4.30;;;2.50;;
67902;SDS011;54708;43.612;1.568;2023-04-24T08:11:43;6.93;;;2.78;;
67902;SDS011;54708;43.612;1.568;2023-04-24T08:14:09;6.13;;;2.53;;
67902;SDS011;54708;43.612;1.568;2023-04-24T08:16:34;6.47;;;2.45;;
67902;SDS011;54708;43.612;1.568;2023-04-24T08:19:00;6.22;;;2.55;;
67902;SDS011;54708;43.612;1.568;2023-04-24T08:21:25;8.40;;;2.63;;
67902;SDS011;54708;43.612;1.568;2023-04-24T08:23:52;13.32;;;2.60;;
67902;SDS011;54708;43.612;1.568;2023-04-24T08:26:17;5.40;;;2.55;;
67902;SDS011;54708;43.612;1.568;2023-04-24T08:28:42;4.38;;;2.03;;
67902;SDS011;54708;43.612;1.568;2023-04-24T08:31:08;6.50;;;2.25;;
67902;SDS011;54708;43.612;1.568;2023-04-24T08:33:33;10.95;;;2.80;;
67902;SDS011;54708;43.612;1.568;2023-04-24T08:36:03;3.42;;;1.83;;
67902;SDS011;54708;43.612;1.568;2023-04-24T08:38:29;8.85;;;2.53;;
67902;SDS011;54708;43.612;1.568;2023-04-24T08:40:56;4.75;;;2.13;;
67902;SDS011;54708;43.612;1.568;2023-04-24T08:43:22;6.55;;;2.03;;
67902;SDS011;54708;43.612;1.568;2023-04-24T08:45:48;3.08;;;1.95;;
67902;SDS011;54708;43.612;1.568;2023-04-24T08:48:13;4.40;;;1.77;;
67902;SDS011;54708;43.612;1.568;2023-04-24T08:50:40;5.95;;;2.10;;
67902;SDS011;54708;43.612;1.568;2023-04-24T08:53:07;7.78;;;1.80;;
67902;SDS011;54708;43.612;1.568;2023-04-24T08:55:33;7.85;;;1.70;;
67902;SDS011;54708;43.612;1.568;2023-04-24T08:57:59;6.20;;;1.75;;
67902;SDS011;54708;43.612;1.568;2023-04-24T09:00:25;8.02;;;1.70;;
67902;SDS011;54708;43.612;1.568;2023-04-24T09:02:53;10.52;;;2.42;;
67902;SDS011;54708;43.612;1.568;2023-04-24T09:05:20;5.35;;;1.73;;
67902;SDS011;54708;43.612;1.568;2023-04-24T09:07:49;2.78;;;1.63;;
67902;SDS011;54708;43.612;1.568;2023-04-24T09:10:15;6.22;;;1.80;;
67902;SDS011;54708;43.612;1.568;2023-04-24T09:12:41;7.88;;;2.10;;
67902;SDS011;54708;43.612;1.568;2023-04-24T09:15:07;10.18;;;2.22;;
67902;SDS011;54708;43.612;1.568;2023-04-24T09:17:33;7.97;;;3.22;;
67902;SDS011;54708;43.612;1.568;2023-04-24T09:20:00;4.57;;;2.45;;
67902;SDS011;54708;43.612;1.568;2023-04-24T09:22:28;9.23;;;1.70;;
67902;SDS011;54708;43.612;1.568;2023-04-24T09:25:04;3.40;;;1.45;;
67902;SDS011;54708;43.612;1.568;2023-04-24T09:27:32;6.18;;;1.58;;
67902;SDS011;54708;43.612;1.568;2023-04-24T09:29:58;6.28;;;1.50;;
67902;SDS011;54708;43.612;1.568;2023-04-24T09:32:24;6.25;;;1.58;;
67902;SDS011;54708;43.612;1.568;2023-04-24T09:35:04;4.15;;;1.90;;
67902;SDS011;54708;43.612;1.568;2023-04-24T09:37:35;3.83;;;1.40;;
67902;SDS011;54708;43.612;1.568;2023-04-24T09:40:14;5.22;;;1.80;;
67902;SDS011;54708;43.612;1.568;2023-04-24T09:42:44;4.85;;;1.90;;
67902;SDS011;54708;43.612;1.568;2023-04-24T09:45:20;6.07;;;2.30;;
67902;SDS011;54708;43.612;1.568;2023-04-24T09:47:46;5.07;;;1.60;;
67902;SDS011;54708;43.612;1.568;2023-04-24T09:50:15;5.38;;;2.10;;
67902;SDS011;54708;43.612;1.568;2023-04-24T09:52:41;2.95;;;1.42;;
67902;SDS011;54708;43.612;1.568;2023-04-24T09:55:12;3.10;;;2.05;;
67902;SDS011;54708;43.612;1.568;2023-04-24T09:57:49;6.03;;;2.45;;
67902;SDS011;54708;43.612;1.568;2023-04-24T10:00:22;1.60;;;1.20;;
67902;SDS011;54708;43.612;1.568;2023-04-24T10:02:55;7.28;;;2.08;;
67902;SDS011;54708;43.612;1.568;2023-04-24T10:05:29;5.68;;;1.98;;
67902;SDS011;54708;43.612;1.568;2023-04-24T10:08:06;4.28;;;1.80;;
67902;SDS011;54708;43.612;1.568;2023-04-24T10:10:33;5.25;;;1.52;;
67902;SDS011;54708;43.612;1.568;2023-04-24T10:13:01;3.63;;;1.73;;
67902;SDS011;54708;43.612;1.568;2023-04-24T10:15:27;3.38;;;1.25;;
67902;SDS011;54708;43.612;1.568;2023-04-24T10:17:52;6.55;;;1.70;;
67902;SDS011;54708;43.612;1.568;2023-04-24T10:20:22;5.78;;;1.60;;
67902;SDS011;54708;43.612;1.568;2023-04-24T10:22:49;5.43;;;1.45;;
67902;SDS011;54708;43.612;1.568;2023-04-24T10:25:19;3.67;;;1.40;;
67902;SDS011;54708;43.612;1.568;2023-04-24T10:27:45;3.17;;;1.23;;
67902;SDS011;54708;43.612;1.568;2023-04-24T10:30:11;4.10;;;1.10;;
67902;SDS011;54708;43.612;1.568;2023-04-24T10:32:37;3.53;;;1.40;;
67902;SDS011;54708;43.612;1.568;2023-04-24T10:35:03;3.22;;;1.20;;
67902;SDS011;54708;43.612;1.568;2023-04-24T10:37:28;1.67;;;1.30;;
67902;SDS011;54708;43.612;1.568;2023-04-24T10:40:00;3.75;;;1.27;;
67902;SDS011;54708;43.612;1.568;2023-04-24T10:42:27;2.92;;;1.63;;
67902;SDS011;54708;43.612;1.568;2023-04-24T10:44:52;2.63;;;1.25;;
67902;SDS011;54708;43.612;1.568;2023-04-24T10:47:19;4.00;;;1.33;;
67902;SDS011;54708;43.612;1.568;2023-04-24T10:49:44;1.80;;;1.00;;
67902;SDS011;54708;43.612;1.568;2023-04-24T10:52:10;2.08;;;0.93;;
67902;SDS011;54708;43.612;1.568;2023-04-24T10:59:43;1.35;;;1.10;;
67902;SDS011;54708;43.612;1.568;2023-04-24T11:02:08;2.47;;;0.98;;
67902;SDS011;54708;43.612;1.568;2023-04-24T11:04:34;3.38;;;1.63;;
67902;SDS011;54708;43.612;1.568;2023-04-24T11:07:00;3.13;;;1.48;;
67902;SDS011;54708;43.612;1.568;2023-04-24T11:09:26;4.85;;;1.55;;
67902;SDS011;54708;43.612;1.568;2023-04-24T11:11:53;2.58;;;1.40;;
67902;SDS011;54708;43.612;1.568;2023-04-24T11:14:28;3.47;;;1.30;;
67902;SDS011;54708;43.612;1.568;2023-04-24T11:16:54;3.00;;;1.33;;
67902;SDS011;54708;43.612;1.568;2023-04-24T11:19:26;7.30;;;1.60;;
67902;SDS011;54708;43.612;1.568;2023-04-24T11:37:26;2.85;;;1.50;;
67902;SDS011;54708;43.612;1.568;2023-04-24T11:39:54;5.65;;;1.27;;
67902;SDS011;54708;43.612;1.568;2023-04-24T11:42:21;2.72;;;1.33;;
67902;SDS011;54708;43.612;1.568;2023-04-24T11:44:47;3.42;;;1.25;;
67902;SDS011;54708;43.612;1.568;2023-04-24T11:47:12;3.35;;;1.17;;
67902;SDS011;54708;43.612;1.568;2023-04-24T11:49:38;9.15;;;2.20;;
67902;SDS011;54708;43.612;1.568;2023-04-24T11:52:04;3.45;;;1.63;;
67902;SDS011;54708;43.612;1.568;2023-04-24T11:54:30;2.88;;;1.00;;
67902;SDS011;54708;43.612;1.568;2023-04-24T11:56:56;5.53;;;1.70;;
67902;SDS011;54708;43.612;1.568;2023-04-24T11:59:21;4.45;;;1.50;;
67902;SDS011;54708;43.612;1.568;2023-04-24T12:01:47;5.30;;;1.63;;
67902;SDS011;54708;43.612;1.568;2023-04-24T12:04:14;2.90;;;1.70;;
67902;SDS011;54708;43.612;1.568;2023-04-24T12:06:58;4.65;;;1.58;;
67902;SDS011;54708;43.612;1.568;2023-04-24T12:09:25;4.03;;;1.13;;
67902;SDS011;54708;43.612;1.568;2023-04-24T12:11:54;1.73;;;1.13;;
67902;SDS011;54708;43.612;1.568;2023-04-24T12:14:21;2.00;;;1.10;;
67902;SDS011;54708;43.612;1.568;2023-04-24T12:16:48;5.20;;;1.58;;
67902;SDS011;54708;43.612;1.568;2023-04-24T12:19:23;5.25;;;1.98;;
67902;SDS011;54708;43.612;1.568;2023-04-24T12:22:06;3.15;;;1.30;;
67902;SDS011;54708;43.612;1.568;2023-04-24T12:24:32;2.80;;;1.30;;
67902;SDS011;54708;43.612;1.568;2023-04-24T12:26:57;6.32;;;1.42;;
67902;SDS011;54708;43.612;1.568;2023-04-24T12:29:23;3.40;;;1.00;;
67902;SDS011;54708;43.612;1.568;2023-04-24T12:31:49;6.35;;;1.60;;
67902;SDS011;54708;43.612;1.568;2023-04-24T12:34:19;2.30;;;1.63;;
67902;SDS011;54708;43.612;1.568;2023-04-24T12:36:46;2.20;;;1.75;;
67902;SDS011;54708;43.612;1.568;2023-04-24T12:39:18;4.75;;;1.42;;
67902;SDS011;54708;43.612;1.568;2023-04-24T12:44:28;4.03;;;1.50;;
67902;SDS011;54708;43.612;1.568;2023-04-24T12:47:00;3.28;;;1.55;;
67902;SDS011;54708;43.612;1.568;2023-04-24T12:49:26;4.78;;;1.65;;
67902;SDS011;54708;43.612;1.568;2023-04-24T12:51:52;5.15;;;1.38;;
67902;SDS011;54708;43.612;1.568;2023-04-24T12:54:18;3.05;;;1.90;;
67902;SDS011;54708;43.612;1.568;2023-04-24T12:56:44;3.05;;;1.75;;
67902;SDS011;54708;43.612;1.568;2023-04-24T12:59:09;5.43;;;1.52;;
67902;SDS011;54708;43.612;1.568;2023-04-24T13:01:35;2.15;;;1.30;;
67902;SDS011;54708;43.612;1.568;2023-04-24T13:04:00;3.05;;;1.20;;
67902;SDS011;54708;43.612;1.568;2023-04-24T13:06:26;3.60;;;1.83;;
67902;SDS011;54708;43.612;1.568;2023-04-24T13:08:51;2.90;;;1.17;;
67902;SDS011;54708;43.612;1.568;2023-04-24T13:11:17;2.60;;;1.35;;
67902;SDS011;54708;43.612;1.568;2023-04-24T13:13:42;1.38;;;1.25;;
67902;SDS011;54708;43.612;1.568;2023-04-24T13:16:08;4.82;;;1.35;;
67902;SDS011;54708;43.612;1.568;2023-04-24T13:18:33;3.15;;;1.20;;
67902;SDS011;54708;43.612;1.568;2023-04-24T13:20:59;3.05;;;1.75;;
67902;SDS011;54708;43.612;1.568;2023-04-24T13:23:24;4.78;;;2.08;;
67902;SDS011;54708;43.612;1.568;2023-04-24T13:25:49;6.50;;;2.03;;
67902;SDS011;54708;43.612;1.568;2023-04-24T13:28:15;3.92;;;1.67;;
67902;SDS011;54708;43.612;1.568;2023-04-24T13:30:40;3.67;;;1.27;;
67902;SDS011;54708;43.612;1.568;2023-04-24T13:33:06;2.28;;;1.60;;
67902;SDS011;54708;43.612;1.568;2023-04-24T13:35:31;4.32;;;1.73;;
67902;SDS011;54708;43.612;1.568;2023-04-24T13:37:57;8.07;;;1.95;;
67902;SDS011;54708;43.612;1.568;2023-04-24T13:40:23;3.20;;;1.70;;
67902;SDS011;54708;43.612;1.568;2023-04-24T13:42:48;3.10;;;1.30;;
67902;SDS011;54708;43.612;1.568;2023-04-24T13:45:14;4.30;;;1.15;;
67902;SDS011;54708;43.612;1.568;2023-04-24T13:47:39;4.60;;;1.40;;
67902;SDS011;54708;43.612;1.568;2023-04-24T13:50:06;5.30;;;1.10;;
67902;SDS011;54708;43.612;1.568;2023-04-24T13:52:33;9.30;;;2.28;;
67902;SDS011;54708;43.612;1.568;2023-04-24T13:54:58;3.55;;;1.60;;
67902;SDS011;54708;43.612;1.568;2023-04-24T13:57:24;5.88;;;1.40;;
67902;SDS011;54708;43.612;1.568;2023-04-24T13:59:50;1.70;;;1.48;;
67902;SDS011;54708;43.612;1.568;2023-04-24T14:02:15;2.17;;;1.15;;
67902;SDS011;54708;43.612;1.568;2023-04-24T14:04:40;4.30;;;1.27;;
67902;SDS011;54708;43.612;1.568;2023-04-24T14:07:06;4.13;;;1.25;;
67902;SDS011;54708;43.612;1.568;2023-04-24T14:09:32;3.50;;;1.83;;
67902;SDS011;54708;43.612;1.568;2023-04-24T14:11:58;2.47;;;1.20;;
67902;SDS011;54708;43.612;1.568;2023-04-24T14:14:24;3.80;;;1.27;;
67902;SDS011;54708;43.612;1.568;2023-04-24T14:16:49;5.40;;;1.85;;
67902;SDS011;54708;43.612;1.568;2023-04-24T14:19:15;3.63;;;1.52;;
67902;SDS011;54708;43.612;1.568;2023-04-24T14:21:40;4.13;;;1.30;;
67902;SDS011;54708;43.612;1.568;2023-04-24T14:24:05;4.45;;;1.40;;
67902;SDS011;54708;43.612;1.568;2023-04-24T14:26:31;2.83;;;0.90;;
67902;SDS011;54708;43.612;1.568;2023-04-24T14:28:57;3.03;;;1.20;;
67902;SDS011;54708;43.612;1.568;2023-04-24T14:31:23;6.65;;;1.35;;
67902;SDS011;54708;43.612;1.568;2023-04-24T14:33:49;2.03;;;1.10;;
67902;SDS011;54708;43.612;1.568;2023-04-24T14:36:14;2.28;;;1.25;;
67902;SDS011;54708;43.612;1.568;2023-04-24T14:38:40;2.08;;;1.23;;
67902;SDS011;54708;43.612;1.568;2023-04-24T14:41:05;3.47;;;1.20;;
67902;SDS011;54708;43.612;1.568;2023-04-24T14:43:34;2.45;;;1.30;;
67902;SDS011;54708;43.612;1.568;2023-04-24T14:46:00;3.33;;;1.00;;
67902;SDS011;54708;43.612;1.568;2023-04-24T14:48:25;3.88;;;1.15;;
67902;SDS011;54708;43.612;1.568;2023-04-24T14:50:51;2.45;;;1.38;;
67902;SDS011;54708;43.612;1.568;2023-04-24T14:53:16;1.98;;;1.00;;
67902;SDS011;54708;43.612;1.568;2023-04-24T14:55:42;2.83;;;1.17;;
67902;SDS011;54708;43.612;1.568;2023-04-24T14:58:07;3.38;;;1.40;;
67902;SDS011;54708;43.612;1.568;2023-04-24T15:00:32;3.05;;;1.25;;
67902;SDS011;54708;43.612;1.568;2023-04-24T15:02:58;2.72;;;1.17;;